Cringleford, United Kingdom
Current Conditions -  °F | °C
As of 9:20 AM on Friday 28 Nov 2014 (Local Time) from EGSH Reporting Station
Haze Haze  
Wind Chill: 11°   Ceiling: 400
Heat Index: 11°   Visibility: 2.1mi
Dew Point: 10°   Wind: 13mph
Humidity: 94%   Direction: 90°E
Pressure: 29.71"   Gusts: NA
Location:  52.6°N, 1.24°E
Report Text: EGSH 280920Z 09011KT 3500 BR OVC004 11/10 Q1006 TEMPO 6000 NSW BKN008
Loading
Personal Weather Stations






























Interactive Weather Map New forecast layout! Learn more

10-Day Weather Forecast

Advertisements
Track Severe Weather on mobile